createdAt,value
2019-05-02T00:00:45.887Z,0.09
2019-05-02T00:01:46.416Z,0.09
2019-05-02T00:02:47.074Z,0.09
2019-05-02T00:03:46.512Z,0.09
2019-05-02T00:04:51.074Z,0.09
2019-05-02T00:05:47.507Z,0.09
2019-05-02T00:06:49.016Z,0.09
2019-05-02T00:06:57.580Z,0.09
2019-05-02T00:07:59.688Z,0.09
2019-05-02T00:08:58.632Z,0.09
2019-05-02T00:10:00.255Z,0.09
2019-05-02T00:11:00.712Z,0.09
2019-05-02T00:12:01.357Z,0.09
2019-05-02T00:13:01.921Z,0.09
2019-05-02T00:14:02.218Z,0.09
2019-05-02T00:15:03.406Z,0.09
2019-05-02T00:16:02.117Z,0.09
2019-05-02T00:17:03.742Z,0.09
2019-05-02T00:18:04.425Z,0.09
2019-05-02T00:19:09.143Z,0.09
2019-05-02T00:20:04.555Z,0.09
2019-05-02T00:21:05.645Z,0.09
2019-05-02T00:22:06.201Z,0.09
2019-05-02T00:23:06.776Z,0.09
2019-05-02T00:24:07.501Z,0.09
2019-05-02T00:25:11.161Z,0.09
2019-05-02T00:26:07.877Z,0.09
2019-05-02T00:27:09.570Z,0.09
2019-05-02T00:28:12.522Z,0.09
2019-05-02T00:29:09.455Z,0.09
2019-05-02T00:30:11.014Z,0.09
2019-05-02T00:31:12.872Z,0.09
2019-05-02T00:32:11.489Z,0.09
2019-05-02T00:33:13.308Z,0.09
2019-05-02T00:34:13.856Z,0.09
2019-05-02T00:35:14.623Z,0.09
2019-05-02T00:36:15.180Z,0.09
2019-05-02T00:37:18.801Z,0.09
2019-05-02T00:38:15.641Z,0.09
2019-05-02T00:39:17.241Z,0.09
2019-05-02T00:40:20.245Z,0.09
2019-05-02T00:41:17.666Z,0.09
2019-05-02T00:42:22.445Z,0.09
2019-05-02T00:43:18.610Z,0.09
2019-05-02T00:44:20.109Z,0.09
2019-05-02T00:45:23.992Z,0.09
2019-05-02T00:46:20.818Z,0.09
2019-05-02T00:47:21.528Z,0.09
2019-05-02T00:48:23.087Z,0.09
2019-05-02T00:49:22.413Z,0.09
2019-05-02T00:50:22.736Z,0.09
2019-05-02T00:51:26.679Z,0.09
2019-05-02T00:52:24.308Z,0.09
2019-05-02T00:53:26.074Z,0.09
2019-05-02T00:54:25.926Z,0.09
2019-05-02T00:55:28.854Z,0.09
2019-05-02T00:56:54.679Z,0.09
2019-05-02T00:57:55.715Z,0.09
2019-05-02T00:58:55.075Z,0.09
2019-05-02T00:59:55.998Z,0.09
2019-05-02T01:00:56.135Z,0.09
2019-05-02T01:01:59.937Z,0.09
2019-05-02T01:02:56.411Z,0.09
2019-05-02T01:03:56.599Z,0.09
2019-05-02T01:04:59.306Z,0.09
2019-05-02T01:05:57.816Z,0.09
2019-05-02T01:06:58.666Z,0.09
2019-05-02T01:08:01.150Z,0.09
2019-05-02T01:08:59.501Z,0.09
2019-05-02T01:09:59.893Z,0.09
2019-05-02T01:11:00.281Z,0.09
2019-05-02T01:12:03.066Z,0.09
2019-05-02T01:13:00.965Z,0.09
2019-05-02T01:14:01.703Z,0.09
2019-05-02T01:15:03.245Z,0.09
2019-05-02T01:16:02.558Z,0.09
2019-05-02T01:17:04.366Z,0.09
2019-05-02T01:18:06.181Z,0.09
2019-05-02T01:19:04.329Z,0.09
2019-05-02T01:20:05.768Z,0.09
2019-05-02T01:21:06.195Z,0.09
2019-05-02T01:22:10.745Z,0.09
2019-05-02T01:23:06.374Z,0.09
2019-05-02T01:24:07.778Z,0.09
2019-05-02T01:25:15.308Z,0.09
2019-05-02T01:26:07.895Z,0.09
2019-05-02T01:27:09.567Z,0.09
2019-05-02T01:28:12.600Z,0.09
2019-05-02T01:29:09.673Z,0.09
2019-05-02T01:30:11.331Z,0.09
2019-05-02T01:31:13.230Z,0.09
2019-05-02T01:32:11.400Z,0.09
2019-05-02T01:33:12.850Z,0.09
2019-05-02T01:34:17.983Z,0.09
2019-05-02T01:35:13.034Z,0.09
2019-05-02T01:36:14.564Z,0.09
2019-05-02T01:37:20.765Z,0.09
2019-05-02T01:38:14.907Z,0.09
2019-05-02T01:39:16.341Z,0.09
2019-05-02T01:40:17.697Z,0.09
2019-05-02T01:41:16.222Z,0.09
2019-05-02T01:42:17.783Z,0.09
2019-05-02T01:43:19.857Z,0.09
2019-05-02T01:44:17.958Z,0.09
2019-05-02T01:45:19.730Z,0.09
2019-05-02T01:46:22.159Z,0.09
2019-05-02T01:47:20.270Z,0.09
2019-05-02T01:48:21.922Z,0.09
2019-05-02T01:49:23.179Z,0.09
2019-05-02T01:50:22.150Z,0.09
2019-05-02T01:51:23.764Z,0.09
2019-05-02T01:52:24.984Z,0.09
2019-05-02T01:53:23.978Z,0.09
2019-05-02T01:54:25.682Z,0.09
2019-05-02T01:55:26.367Z,0.09
2019-05-02T01:56:28.537Z,0.09
2019-05-02T01:57:26.916Z,0.09
2019-05-02T01:58:28.024Z,0.06
2019-05-02T01:59:29.051Z,0.06
2019-05-02T02:00:28.256Z,0.09
2019-05-02T02:01:29.726Z,0.09
2019-05-02T02:02:32.879Z,0.09
2019-05-02T02:03:29.637Z,0.09
2019-05-02T02:04:31.286Z,0.09
2019-05-02T02:05:32.319Z,0.09
2019-05-02T02:06:31.382Z,0.09
2019-05-02T02:07:33.240Z,0.09
2019-05-02T02:08:34.078Z,0.09
2019-05-02T02:09:33.807Z,0.09
2019-05-02T02:10:35.403Z,0.09
2019-05-02T02:10:44.062Z,0.09
2019-05-02T02:11:44.859Z,0.09
2019-05-02T02:13:02.989Z,0.09
2019-05-02T02:13:45.918Z,0.09
2019-05-02T02:14:48.127Z,0.09
2019-05-02T02:15:46.901Z,0.09
2019-05-02T02:16:48.378Z,0.09
2019-05-02T02:17:51.426Z,0.09
2019-05-02T02:18:48.574Z,0.09
2019-05-02T02:19:50.204Z,0.09
2019-05-02T02:20:50.788Z,0.09
2019-05-02T02:21:51.517Z,0.09
2019-05-02T02:22:51.849Z,0.09
2019-05-02T02:23:52.264Z,0.09
2019-05-02T02:24:55.894Z,0.09
2019-05-02T02:25:52.644Z,0.09
2019-05-02T02:26:54.174Z,0.09
2019-05-02T02:27:54.886Z,0.09
2019-05-02T02:28:54.192Z,0.09
2019-05-02T02:29:56.029Z,0.09
2019-05-02T02:30:57.691Z,0.09
2019-05-02T02:31:56.340Z,0.09
2019-05-02T02:33:00.522Z,0.09
2019-05-02T02:33:57.512Z,0.09
2019-05-02T02:35:03.603Z,0.09
2019-05-02T02:35:58.665Z,0.09
2019-05-02T02:37:05.259Z,0.09
2019-05-02T02:37:59.848Z,0.09
2019-05-02T02:39:07.126Z,0.09
2019-05-02T02:40:01.049Z,0.09
2019-05-02T02:41:51.835Z,0.09
2019-05-02T02:42:46.100Z,0.09
2019-05-02T02:43:47.684Z,0.09
2019-05-02T02:44:48.209Z,0.09
2019-05-02T02:45:51.855Z,0.09
2019-05-02T02:46:48.810Z,0.09
2019-05-02T02:47:52.954Z,0.09
2019-05-02T02:48:50.456Z,0.09
2019-05-02T02:49:56.003Z,0.09
2019-05-02T02:50:51.691Z,0.09
2019-05-02T02:51:58.223Z,0.09
2019-05-02T02:52:53.193Z,0.09
2019-05-02T02:54:02.700Z,0.09
2019-05-02T02:54:54.302Z,0.09
2019-05-02T02:56:01.543Z,0.09
2019-05-02T02:56:55.529Z,0.09
2019-05-02T02:57:58.393Z,0.09
2019-05-02T02:58:56.900Z,0.09
2019-05-02T03:00:06.357Z,0.09
2019-05-02T03:00:57.669Z,0.09
2019-05-02T03:02:09.261Z,0.09
2019-05-02T03:02:58.697Z,0.09
2019-05-02T03:04:02.025Z,0.09
2019-05-02T03:04:59.843Z,0.09
2019-05-02T03:06:05.477Z,0.09
2019-05-02T03:07:01.266Z,0.09
2019-05-02T03:08:05.445Z,0.09
2019-05-02T03:09:02.642Z,0.09
2019-05-02T03:10:06.328Z,0.09
2019-05-02T03:11:03.967Z,0.09
2019-05-02T03:12:05.422Z,0.09
2019-05-02T03:13:06.069Z,0.09
2019-05-02T03:14:09.506Z,0.09
2019-05-02T03:15:06.343Z,0.09
2019-05-02T03:16:09.303Z,0.13
2019-05-02T03:17:07.814Z,0.09
2019-05-02T03:18:09.279Z,0.09
2019-05-02T03:19:14.539Z,0.09
2019-05-02T03:20:09.587Z,0.09
2019-05-02T03:21:13.279Z,0.09
2019-05-02T03:22:11.088Z,0.13
2019-05-02T03:23:15.125Z,0.13
2019-05-02T03:24:11.934Z,0.13
2019-05-02T03:25:18.002Z,0.09
2019-05-02T03:26:14.815Z,0.09
2019-05-02T03:27:14.094Z,0.09
2019-05-02T03:28:18.554Z,0.09
2019-05-02T03:29:15.905Z,0.13
2019-05-02T03:30:31.644Z,0.13
2019-05-02T03:31:29.124Z,0.09
2019-05-02T03:32:31.810Z,0.13
2019-05-02T03:33:18.546Z,0.13
2019-05-02T03:34:19.103Z,0.09
2019-05-02T03:35:40.198Z,0.13
2019-05-02T03:36:29.277Z,0.13
2019-05-02T03:37:21.078Z,0.13
2019-05-02T03:38:31.637Z,0.13
2019-05-02T03:39:22.370Z,0.13
2019-05-02T03:40:24.211Z,0.13
2019-05-02T03:41:24.297Z,0.13
2019-05-02T03:42:25.115Z,0.13
2019-05-02T03:43:25.668Z,0.13
2019-05-02T03:44:26.534Z,0.13
2019-05-02T03:45:32.014Z,0.13
2019-05-02T03:46:26.732Z,0.13
2019-05-02T03:47:28.241Z,0.13
2019-05-02T03:48:29.007Z,0.13
2019-05-02T03:49:29.539Z,0.13
2019-05-02T03:50:32.864Z,0.13
2019-05-02T03:51:30.056Z,0.13
2019-05-02T03:51:38.575Z,0.13
2019-05-02T03:52:43.524Z,0.13
2019-05-02T03:53:39.431Z,0.13
2019-05-02T03:54:49.773Z,0.13
2019-05-02T03:55:40.759Z,0.13
2019-05-02T03:56:44.766Z,0.13
2019-05-02T03:57:42.492Z,0.13
2019-05-02T03:58:48.431Z,0.13
2019-05-02T03:59:43.636Z,0.13
2019-05-02T04:00:44.385Z,0.13
2019-05-02T04:01:46.130Z,0.13
2019-05-02T04:02:59.056Z,0.13
2019-05-02T04:03:46.686Z,0.13
2019-05-02T04:04:54.128Z,0.13
2019-05-02T04:05:47.819Z,0.16
2019-05-02T04:06:54.983Z,0.16
2019-05-02T04:07:49.157Z,0.16
2019-05-02T04:08:58.844Z,0.16
2019-05-02T04:09:50.463Z,0.16
2019-05-02T04:10:58.630Z,0.16
2019-05-02T04:11:51.709Z,0.16
2019-05-02T04:12:58.286Z,0.16
2019-05-02T04:13:52.434Z,0.16
2019-05-02T04:14:56.007Z,0.16
2019-05-02T04:15:53.460Z,0.16
2019-05-02T04:16:57.183Z,0.16
2019-05-02T04:17:54.370Z,0.16
2019-05-02T04:18:58.179Z,0.16
2019-05-02T04:19:56.575Z,0.16
2019-05-02T04:20:57.215Z,0.16
2019-05-02T04:22:01.681Z,0.23
2019-05-02T04:22:57.438Z,0.16
2019-05-02T04:24:12.805Z,0.16
2019-05-02T04:24:58.499Z,0.16
2019-05-02T04:25:59.019Z,0.23
2019-05-02T04:27:06.680Z,0.23
2019-05-02T04:28:05.825Z,0.27
2019-05-02T04:29:01.181Z,0.23
2019-05-02T04:30:09.588Z,0.23
2019-05-02T04:31:01.441Z,0.27
2019-05-02T04:32:11.155Z,0.27
2019-05-02T04:33:03.480Z,0.23
2019-05-02T04:34:13.664Z,0.23
2019-05-02T04:35:04.021Z,0.27
2019-05-02T04:36:14.192Z,0.27
2019-05-02T04:37:05.533Z,0.27
2019-05-02T04:38:15.767Z,0.27
2019-05-02T04:39:15.600Z,0.27
2019-05-02T04:40:11.407Z,0.27
2019-05-02T04:41:09.364Z,0.27
2019-05-02T04:42:13.321Z,0.27
2019-05-02T04:43:11.451Z,0.27
2019-05-02T04:44:09.337Z,0.27
2019-05-02T04:45:21.767Z,0.27
2019-05-02T04:46:18.194Z,0.27
2019-05-02T04:47:17.377Z,0.27
2019-05-02T04:48:12.223Z,0.27
2019-05-02T04:49:20.136Z,0.27
2019-05-02T04:50:17.870Z,0.27
2019-05-02T04:51:16.396Z,0.27
2019-05-02T04:52:17.225Z,0.27
2019-05-02T04:53:15.095Z,0.27
2019-05-02T04:54:25.870Z,0.27
2019-05-02T04:55:26.053Z,0.27
2019-05-02T04:56:18.464Z,0.27
2019-05-02T04:57:18.679Z,0.27
2019-05-02T04:58:27.715Z,0.27
2019-05-02T04:59:22.700Z,0.27
2019-05-02T05:00:19.599Z,0.27
2019-05-02T05:01:21.595Z,0.27
2019-05-02T05:02:29.702Z,0.31
2019-05-02T05:03:21.354Z,0.31
2019-05-02T05:04:21.673Z,0.31
2019-05-02T05:05:25.507Z,0.31
2019-05-02T05:06:22.851Z,0.31
2019-05-02T05:07:24.486Z,0.31
2019-05-02T05:08:26.418Z,0.31
2019-05-02T05:09:24.190Z,0.31
2019-05-02T05:10:27.712Z,0.27
2019-05-02T05:11:25.108Z,0.27
2019-05-02T05:12:27.748Z,0.27
2019-05-02T05:13:26.658Z,0.31
2019-05-02T05:14:31.347Z,0.27
2019-05-02T05:15:40.292Z,0.31
2019-05-02T05:16:28.642Z,0.31
2019-05-02T05:17:32.777Z,0.31
2019-05-02T05:18:29.106Z,0.34
2019-05-02T05:19:32.743Z,0.34
2019-05-02T05:19:39.357Z,0.34
2019-05-02T05:20:45.158Z,0.31
2019-05-02T05:21:40.377Z,0.34
2019-05-02T05:22:44.208Z,0.34
2019-05-02T05:23:41.602Z,0.34
2019-05-02T05:24:43.239Z,0.34
2019-05-02T05:25:43.750Z,0.34
2019-05-02T05:26:44.289Z,0.34
2019-05-02T05:27:44.876Z,0.38
2019-05-02T05:28:47.551Z,0.34
2019-05-02T05:29:46.617Z,0.34
2019-05-02T05:30:46.841Z,0.34
2019-05-02T05:31:48.159Z,0.34
2019-05-02T05:32:47.875Z,0.34
2019-05-02T05:33:47.887Z,0.34
2019-05-02T05:34:47.907Z,0.34
2019-05-02T05:35:52.452Z,0.38
2019-05-02T05:36:49.022Z,0.38
2019-05-02T05:37:53.093Z,0.38
2019-05-02T05:38:50.433Z,0.34
2019-05-02T05:39:52.705Z,0.34
2019-05-02T05:40:51.417Z,0.31
2019-05-02T05:41:53.068Z,0.31
2019-05-02T05:42:53.927Z,0.31
2019-05-02T05:43:54.396Z,0.31
2019-05-02T05:44:55.011Z,0.31
2019-05-02T05:46:06.035Z,0.31
2019-05-02T05:46:55.262Z,0.31
2019-05-02T05:48:00.836Z,0.34
2019-05-02T05:48:58.307Z,0.34
2019-05-02T05:50:00.996Z,0.34
2019-05-02T05:50:58.031Z,0.34
2019-05-02T05:52:02.577Z,0.34
2019-05-02T05:52:59.578Z,0.34
2019-05-02T05:54:02.970Z,0.34
2019-05-02T05:54:59.656Z,0.31
2019-05-02T05:56:02.575Z,0.34
2019-05-02T05:57:00.361Z,0.38
2019-05-02T05:58:12.383Z,0.38
2019-05-02T05:59:01.447Z,0.38
2019-05-02T06:00:11.994Z,0.38
2019-05-02T06:01:02.884Z,0.38
2019-05-02T06:02:05.429Z,0.38
2019-05-02T06:03:11.568Z,0.41
2019-05-02T06:04:04.712Z,0.41
2019-05-02T06:05:07.927Z,0.41
2019-05-02T06:06:09.754Z,0.41
2019-05-02T06:07:07.211Z,0.41
2019-05-02T06:08:08.163Z,0.41
2019-05-02T06:09:07.865Z,0.41
2019-05-02T06:10:09.974Z,0.41
2019-05-02T06:11:08.455Z,0.41
2019-05-02T06:12:09.996Z,0.38
2019-05-02T06:13:12.805Z,0.45
2019-05-02T06:14:10.172Z,0.45
2019-05-02T06:15:11.728Z,0.41
2019-05-02T06:16:15.106Z,0.48
2019-05-02T06:17:11.855Z,0.45
2019-05-02T06:18:13.425Z,0.52
2019-05-02T06:19:17.832Z,0.45
2019-05-02T06:20:13.375Z,0.45
2019-05-02T06:21:17.073Z,0.45
2019-05-02T06:22:16.579Z,0.45
2019-05-02T06:23:15.533Z,0.45
2019-05-02T06:24:17.417Z,0.45
2019-05-02T06:25:32.873Z,0.45
2019-05-02T06:26:18.204Z,0.45
2019-05-02T06:27:20.898Z,0.52
2019-05-02T06:28:19.868Z,0.45
2019-05-02T06:29:21.534Z,0.45
2019-05-02T06:30:21.553Z,0.45
2019-05-02T06:31:21.965Z,0.45
2019-05-02T06:31:30.498Z,0.45
2019-05-02T06:32:31.549Z,0.45
2019-05-02T06:33:32.366Z,0.45
2019-05-02T06:34:31.458Z,0.45
2019-05-02T06:35:32.897Z,0.48
2019-05-02T06:36:36.876Z,0.48
2019-05-02T06:37:33.176Z,0.48
2019-05-02T06:38:34.244Z,0.48
2019-05-02T06:39:35.159Z,0.48
2019-05-02T06:40:39.353Z,0.48
2019-05-02T06:41:35.358Z,0.48
2019-05-02T06:42:37.914Z,0.45
2019-05-02T06:43:41.363Z,0.48
2019-05-02T06:44:37.473Z,0.48
2019-05-02T06:45:39.641Z,0.48
2019-05-02T06:46:38.571Z,0.48
2019-05-02T06:47:41.544Z,0.48
2019-05-02T06:48:39.784Z,0.45
2019-05-02T06:49:41.248Z,0.45
2019-05-02T06:50:41.773Z,0.45
2019-05-02T06:51:42.279Z,0.45
2019-05-02T06:52:42.952Z,0.45
2019-05-02T06:53:47.126Z,0.45
2019-05-02T06:54:42.771Z,0.45
2019-05-02T06:55:44.426Z,0.48
2019-05-02T06:56:47.991Z,0.45
2019-05-02T06:57:44.663Z,0.45
2019-05-02T06:58:46.306Z,0.45
2019-05-02T06:59:50.052Z,0.45
2019-05-02T07:00:57.616Z,0.45
2019-05-02T07:01:47.193Z,0.48
2019-05-02T07:02:48.859Z,0.48
2019-05-02T07:03:49.129Z,0.48
2019-05-02T07:04:49.492Z,0.48
2019-05-02T07:05:50.305Z,0.48
2019-05-02T07:06:58.804Z,0.52
2019-05-02T07:07:50.022Z,0.52
2019-05-02T07:08:51.682Z,0.48
2019-05-02T07:09:51.177Z,0.45
2019-05-02T07:10:56.135Z,0.41
2019-05-02T07:11:57.273Z,0.45
2019-05-02T07:13:09.191Z,0.45
2019-05-02T07:13:51.733Z,0.45
2019-05-02T07:14:56.153Z,0.41
2019-05-02T07:15:53.282Z,0.41
2019-05-02T07:16:56.464Z,0.41
2019-05-02T07:17:54.548Z,0.41
2019-05-02T07:18:55.906Z,0.41
2019-05-02T07:19:58.837Z,0.41
2019-05-02T07:20:56.379Z,0.41
2019-05-02T07:22:00.370Z,0.41
2019-05-02T07:22:58.184Z,0.41
2019-05-02T07:23:59.974Z,0.41
2019-05-02T07:25:01.783Z,0.38
2019-05-02T07:26:00.589Z,0.38
2019-05-02T07:27:02.651Z,0.41
2019-05-02T07:28:04.677Z,0.38
2019-05-02T07:29:02.763Z,0.41
2019-05-02T07:30:04.519Z,0.45
2019-05-02T07:31:06.512Z,0.52
2019-05-02T07:32:04.427Z,0.45
2019-05-02T07:33:05.956Z,0.48
2019-05-02T07:34:08.076Z,0.48
2019-05-02T07:35:06.359Z,0.48
2019-05-02T07:35:19.281Z,0.48
2019-05-02T07:36:15.441Z,0.48
2019-05-02T07:37:17.076Z,0.48
2019-05-02T07:38:20.211Z,0.52
2019-05-02T07:39:17.296Z,0.48
2019-05-02T07:40:18.970Z,0.52
2019-05-02T07:41:18.087Z,0.59
2019-05-02T07:42:19.237Z,0.59
2019-05-02T07:43:22.206Z,0.59
2019-05-02T07:44:19.566Z,0.59
2019-05-02T07:45:21.047Z,0.66
2019-05-02T07:46:22.249Z,0.66
2019-05-02T07:47:20.894Z,0.66
2019-05-02T07:48:22.596Z,0.66
2019-05-02T07:49:26.779Z,0.70
2019-05-02T07:50:23.026Z,0.70
2019-05-02T07:51:24.668Z,0.77
2019-05-02T07:52:28.947Z,0.77
2019-05-02T07:53:24.881Z,0.80
2019-05-02T07:54:26.801Z,0.88
2019-05-02T07:55:26.437Z,0.84
2019-05-02T07:56:28.054Z,0.88
2019-05-02T07:57:30.549Z,0.91
2019-05-02T07:58:28.337Z,0.84
2019-05-02T07:59:32.197Z,0.95
2019-05-02T08:01:02.186Z,0.88
2019-05-02T08:02:03.840Z,0.91
2019-05-02T08:03:05.154Z,0.91
2019-05-02T08:04:09.419Z,0.84
2019-05-02T08:05:05.352Z,0.88
2019-05-02T08:06:08.213Z,0.88
2019-05-02T08:07:07.921Z,0.95
2019-05-02T08:08:08.080Z,0.95
2019-05-02T08:09:09.337Z,0.95
2019-05-02T08:10:10.073Z,1.02
2019-05-02T08:11:10.672Z,1.02
2019-05-02T08:12:11.248Z,1.12
2019-05-02T08:13:12.091Z,1.16
2019-05-02T08:14:11.411Z,1.16
2019-05-02T08:15:15.195Z,1.16
2019-05-02T08:16:12.747Z,1.16
2019-05-02T08:17:17.241Z,1.20
2019-05-02T08:18:13.672Z,1.16
2019-05-02T08:19:15.259Z,1.12
2019-05-02T08:20:19.283Z,1.20
2019-05-02T08:21:16.158Z,1.23
2019-05-02T08:22:17.642Z,1.41
2019-05-02T08:23:20.553Z,1.41
2019-05-02T08:24:19.252Z,1.62
2019-05-02T08:25:18.664Z,1.52
2019-05-02T08:26:21.579Z,1.52
2019-05-02T08:27:22.837Z,1.73
2019-05-02T08:28:20.609Z,1.55
2019-05-02T08:29:23.400Z,1.44
2019-05-02T08:30:22.062Z,1.55
2019-05-02T08:31:23.636Z,1.41
2019-05-02T08:32:24.372Z,1.34
2019-05-02T08:33:29.417Z,1.62
2019-05-02T08:34:25.523Z,1.62
2019-05-02T08:35:28.147Z,2.05
2019-05-02T08:36:26.044Z,1.98
2019-05-02T08:37:26.583Z,1.98
2019-05-02T08:38:28.181Z,2.01
2019-05-02T08:39:33.189Z,2.09
2019-05-02T08:40:28.794Z,2.16
2019-05-02T08:41:30.589Z,2.05
2019-05-02T08:42:32.579Z,1.84
2019-05-02T08:43:30.747Z,2.37
2019-05-02T08:44:31.442Z,2.30
2019-05-02T08:45:32.977Z,2.05
2019-05-02T08:46:31.502Z,2.09
2019-05-02T08:47:33.259Z,2.23
2019-05-02T08:48:36.431Z,2.16
2019-05-02T08:49:33.356Z,2.23
2019-05-02T08:49:42.553Z,2.41
2019-05-02T08:50:42.604Z,2.23
2019-05-02T08:51:44.390Z,2.19
2019-05-02T08:52:47.805Z,1.66
2019-05-02T08:53:44.437Z,1.44
2019-05-02T08:54:45.820Z,1.73
2019-05-02T08:55:46.725Z,1.73
2019-05-02T08:56:45.909Z,1.73
2019-05-02T08:57:47.669Z,1.69
2019-05-02T08:58:49.830Z,1.69
2019-05-02T08:59:47.915Z,1.66
2019-05-02T09:00:49.536Z,1.66
2019-05-02T09:01:51.455Z,1.69
2019-05-02T09:02:50.239Z,1.37
2019-05-02T09:03:56.959Z,1.62
2019-05-02T09:04:58.396Z,1.62
2019-05-02T09:05:51.686Z,1.62
2019-05-02T09:06:58.487Z,1.55
2019-05-02T09:07:52.714Z,1.52
2019-05-02T09:08:54.520Z,1.37
2019-05-02T09:09:55.674Z,1.41
2019-05-02T09:10:54.373Z,1.41
2019-05-02T09:12:09.056Z,1.41
2019-05-02T09:12:55.533Z,1.37
2019-05-02T09:13:57.076Z,1.30
2019-05-02T09:14:57.524Z,1.27
2019-05-02T09:15:58.023Z,1.20
2019-05-02T09:17:00.143Z,1.27
2019-05-02T09:17:58.043Z,1.34
2019-05-02T09:18:59.608Z,1.34
2019-05-02T09:20:03.447Z,1.37
2019-05-02T09:20:59.654Z,1.41
2019-05-02T09:22:02.550Z,1.41
2019-05-02T09:23:01.766Z,1.37
2019-05-02T09:24:02.489Z,1.34
2019-05-02T09:25:02.235Z,1.30
2019-05-02T09:26:02.694Z,1.30
2019-05-02T09:27:02.859Z,1.27
2019-05-02T09:28:04.498Z,1.27
2019-05-02T09:29:05.581Z,1.27
2019-05-02T09:30:04.620Z,1.37
2019-05-02T09:31:06.784Z,1.34
2019-05-02T09:32:08.759Z,1.37
2019-05-02T09:33:06.789Z,1.62
2019-05-02T09:34:08.017Z,1.37
2019-05-02T09:35:08.028Z,1.30
2019-05-02T09:36:09.556Z,1.34
2019-05-02T09:37:13.310Z,1.27
2019-05-02T09:38:09.344Z,1.52
2019-05-02T09:39:11.858Z,1.62
2019-05-02T09:40:12.541Z,2.09
2019-05-02T09:41:18.843Z,2.44
2019-05-02T09:42:12.411Z,1.77
2019-05-02T09:43:12.163Z,2.26
2019-05-02T09:44:18.576Z,2.48
2019-05-02T09:45:15.809Z,2.12
2019-05-02T09:46:16.552Z,1.69
2019-05-02T09:47:14.365Z,1.77
2019-05-02T09:48:17.235Z,1.73
2019-05-02T09:49:16.591Z,1.69
2019-05-02T09:50:15.551Z,1.69
2019-05-02T09:51:17.400Z,1.62
2019-05-02T09:52:16.230Z,1.59
2019-05-02T09:52:25.290Z,1.62
2019-05-02T09:53:26.727Z,2.05
2019-05-02T09:54:27.308Z,2.19
2019-05-02T09:55:27.883Z,2.16
2019-05-02T09:57:02.709Z,2.12
2019-05-02T09:58:02.714Z,2.05
2019-05-02T09:59:10.041Z,2.26
2019-05-02T10:00:02.668Z,2.26
2019-05-02T10:01:04.236Z,2.01
2019-05-02T10:02:04.993Z,2.16
2019-05-02T10:03:05.687Z,2.05
2019-05-02T10:04:06.206Z,2.16
2019-05-02T10:05:06.919Z,2.26
2019-05-02T10:06:08.376Z,2.30
2019-05-02T10:07:07.024Z,2.12
2019-05-02T10:08:11.626Z,2.23
2019-05-02T10:09:08.331Z,2.16
2019-05-02T10:10:09.967Z,2.05
2019-05-02T10:11:11.751Z,2.01
2019-05-02T10:12:12.215Z,2.01
2019-05-02T10:13:12.230Z,2.16
2019-05-02T10:14:11.785Z,2.12
2019-05-02T10:15:12.848Z,2.05
2019-05-02T10:16:12.686Z,2.05
2019-05-02T10:17:13.713Z,2.05
2019-05-02T10:18:14.675Z,1.87
2019-05-02T10:19:13.853Z,2.01
2019-05-02T10:20:15.402Z,1.84
2019-05-02T10:21:17.280Z,1.73
2019-05-02T10:22:15.679Z,1.41
2019-05-02T10:23:19.698Z,1.69
2019-05-02T10:24:17.759Z,1.52
2019-05-02T10:25:16.932Z,1.87
2019-05-02T10:26:23.778Z,1.73
2019-05-02T10:27:17.573Z,2.19
2019-05-02T10:28:19.570Z,2.51
2019-05-02T10:29:20.984Z,2.19
2019-05-02T10:30:21.610Z,2.19
2019-05-02T10:31:21.851Z,2.37
2019-05-02T10:32:22.677Z,2.48
2019-05-02T10:33:22.535Z,2.55
2019-05-02T10:34:22.723Z,2.37
2019-05-02T10:35:23.021Z,2.37
2019-05-02T10:36:24.116Z,2.37
2019-05-02T10:37:24.409Z,2.30
2019-05-02T10:38:25.976Z,2.26
2019-05-02T10:39:28.365Z,2.23
2019-05-02T10:40:26.358Z,2.16
2019-05-02T10:41:33.468Z,2.05
2019-05-02T10:42:27.297Z,2.09
2019-05-02T10:43:28.992Z,2.05
2019-05-02T10:44:32.751Z,2.01
2019-05-02T10:45:29.233Z,2.05
2019-05-02T10:46:33.600Z,2.05
2019-05-02T10:47:32.307Z,2.16
2019-05-02T10:48:33.159Z,2.26
2019-05-02T10:49:32.262Z,2.09
2019-05-02T10:50:32.962Z,2.12
2019-05-02T10:51:33.082Z,2.12
2019-05-02T10:52:34.996Z,2.37
2019-05-02T10:53:35.598Z,2.30
2019-05-02T10:54:37.558Z,2.23
2019-05-02T10:55:35.738Z,2.01
2019-05-02T10:56:36.914Z,2.09
2019-05-02T10:57:37.375Z,2.41
2019-05-02T10:58:37.622Z,2.30
2019-05-02T10:59:38.146Z,2.16
2019-05-02T11:00:38.770Z,2.44
2019-05-02T11:01:41.631Z,2.48
2019-05-02T11:02:39.046Z,2.41
2019-05-02T11:03:43.731Z,2.26
2019-05-02T11:04:42.107Z,2.30
2019-05-02T11:05:42.043Z,2.58
2019-05-02T11:06:42.762Z,2.55
2019-05-02T11:07:42.333Z,2.55
2019-05-02T11:08:45.977Z,2.30
2019-05-02T11:09:43.685Z,2.62
2019-05-02T11:11:12.672Z,2.51
2019-05-02T11:12:16.303Z,2.37
2019-05-02T11:13:12.988Z,2.26
2019-05-02T11:14:14.584Z,2.23
2019-05-02T11:15:14.593Z,2.44
2019-05-02T11:16:14.950Z,2.44
2019-05-02T11:17:17.798Z,2.66
2019-05-02T11:18:15.532Z,2.55
2019-05-02T11:19:15.754Z,2.55
2019-05-02T11:20:16.419Z,2.44
2019-05-02T11:21:18.919Z,2.23
2019-05-02T11:22:17.864Z,2.23
2019-05-02T11:23:19.403Z,2.37
2019-05-02T11:24:19.104Z,2.44
2019-05-02T11:25:22.550Z,2.37
2019-05-02T11:26:23.923Z,2.37
2019-05-02T11:27:22.099Z,2.66
2019-05-02T11:28:22.000Z,2.51
2019-05-02T11:29:22.810Z,2.41
2019-05-02T11:30:26.393Z,2.44
2019-05-02T11:31:22.637Z,1.98
2019-05-02T11:32:24.193Z,2.12
2019-05-02T11:33:24.683Z,1.84
2019-05-02T11:34:25.324Z,2.19
2019-05-02T11:35:26.007Z,2.16
2019-05-02T11:36:27.536Z,2.19
2019-05-02T11:37:26.005Z,2.30
2019-05-02T11:38:48.410Z,2.44
2019-05-02T11:39:34.640Z,2.62
2019-05-02T11:40:27.873Z,2.58
2019-05-02T11:41:31.588Z,2.48
2019-05-02T11:42:29.276Z,2.51
2019-05-02T11:43:32.611Z,2.55
2019-05-02T11:44:30.087Z,2.48
2019-05-02T11:45:32.323Z,2.26
2019-05-02T11:46:32.961Z,2.37
2019-05-02T11:47:32.845Z,2.30
2019-05-02T11:48:32.382Z,2.26
2019-05-02T11:49:33.901Z,2.30
2019-05-02T11:50:35.533Z,2.37
2019-05-02T11:51:34.183Z,2.26
2019-05-02T11:52:37.450Z,2.19
2019-05-02T11:53:35.427Z,2.05
2019-05-02T11:54:39.151Z,2.26
2019-05-02T11:55:36.777Z,2.19
2019-05-02T11:56:41.115Z,2.05
2019-05-02T11:57:37.995Z,2.12
2019-05-02T11:58:40.842Z,2.19
2019-05-02T11:59:39.421Z,2.23
2019-05-02T12:00:45.372Z,2.30
2019-05-02T12:01:42.626Z,2.26
2019-05-02T12:02:41.625Z,2.26
2019-05-02T12:03:42.358Z,2.30
2019-05-02T12:04:42.652Z,2.44
2019-05-02T12:05:44.627Z,2.30
2019-05-02T12:06:49.880Z,2.48
2019-05-02T12:07:44.901Z,2.58
2019-05-02T12:08:49.392Z,2.55
2019-05-02T12:09:55.452Z,2.62
2019-05-02T12:10:46.811Z,2.83
2019-05-02T12:11:52.708Z,2.73
2019-05-02T12:12:48.157Z,2.58
2019-05-02T12:13:52.741Z,2.41
2019-05-02T12:14:49.851Z,2.55
2019-05-02T12:15:52.027Z,2.48
2019-05-02T12:16:52.777Z,2.58
2019-05-02T12:18:00.249Z,2.16
2019-05-02T12:18:53.854Z,1.98
2019-05-02T12:19:53.899Z,2.44
2019-05-02T12:20:55.365Z,2.66
2019-05-02T12:21:55.953Z,2.66
2019-05-02T12:22:07.222Z,2.66
2019-05-02T12:23:05.233Z,2.80
2019-05-02T12:24:05.776Z,2.23
2019-05-02T12:25:06.389Z,2.09
2019-05-02T12:26:08.019Z,2.62
2019-05-02T12:27:08.676Z,2.83
2019-05-02T12:28:09.544Z,2.87
2019-05-02T12:29:12.108Z,2.83
2019-05-02T12:30:11.672Z,2.80
2019-05-02T12:31:13.208Z,2.90
2019-05-02T12:32:12.038Z,2.87
2019-05-02T12:33:12.244Z,2.90
2019-05-02T12:34:12.167Z,2.87
2019-05-02T12:35:11.957Z,2.90
2019-05-02T12:36:13.067Z,2.90
2019-05-02T12:37:13.712Z,2.83
2019-05-02T12:38:14.270Z,2.83
2019-05-02T12:39:14.850Z,2.23
2019-05-02T12:40:15.322Z,2.30
2019-05-02T12:41:22.002Z,2.73
2019-05-02T12:42:15.610Z,2.26
2019-05-02T12:43:16.036Z,1.55
2019-05-02T12:44:17.933Z,1.73
2019-05-02T12:45:18.430Z,1.62
2019-05-02T12:46:19.314Z,1.52
2019-05-02T12:47:19.532Z,1.41
2019-05-02T12:48:22.007Z,1.37
2019-05-02T12:49:25.276Z,1.41
2019-05-02T12:50:22.469Z,3.01
2019-05-02T12:51:22.561Z,1.80
2019-05-02T12:52:22.564Z,2.94
2019-05-02T12:53:22.559Z,1.62
2019-05-02T12:54:24.566Z,1.34
2019-05-02T12:55:25.433Z,1.27
2019-05-02T12:56:26.201Z,1.27
2019-05-02T12:57:26.907Z,1.73
2019-05-02T12:58:26.718Z,1.55
2019-05-02T12:59:28.330Z,1.23
2019-05-02T13:00:28.755Z,1.23
2019-05-02T13:01:29.261Z,1.41
2019-05-02T13:02:29.713Z,1.16
2019-05-02T13:03:31.699Z,1.44
2019-05-02T13:04:32.281Z,1.27
2019-05-02T13:05:31.793Z,1.30
2019-05-02T13:06:32.773Z,1.23
2019-05-02T13:07:32.514Z,1.27
2019-05-02T13:08:33.713Z,1.27
2019-05-02T13:09:34.410Z,1.16
2019-05-02T13:10:34.842Z,1.16
2019-05-02T13:11:36.978Z,1.12
2019-05-02T13:12:34.501Z,1.12
2019-05-02T13:13:36.179Z,1.23
2019-05-02T13:14:36.663Z,1.30
2019-05-02T13:15:37.163Z,1.37
2019-05-02T13:16:37.841Z,1.23
2019-05-02T13:17:43.794Z,2.16
2019-05-02T13:17:48.849Z,1.84
2019-05-02T13:18:48.422Z,1.23
2019-05-02T13:19:57.109Z,1.12
2019-05-02T13:20:49.770Z,1.12